Terminal Aerodrome Forecast
Issued by NWS

Home | Current Version | Previous Version | Text Only | Print | Product List | Glossary On
Versions: 1 2 3 4 5 6 7 8 9 10 11 12 13 14 15 16 17 18 19 20 21 22 23 24 25 26 27 28 29 30 31 32 33 34 35 36 37 38 39 40 41 42 43 44 45 46 47
000
FTUS43 KMKX 130147 AAA
TAFENW
TAF AMD
KENW 130147Z 1302/1324 VRB04KT P6SM FEW020 SCT045 BKN100
      TEMPO 1302/1306 3SM SHRA SCT020 BKN045
     FM130600 VRB04KT 3SM BR BKN015 OVC030
      TEMPO 1306/1307 -SHRA
     FM131000 28005KT 3SM BR SCT015
     FM131400 30008KT P6SM SCT025
     FM131800 28012G21KT P6SM SCT050=

USA.gov is the U.S. government's official web portal to all federal, state and local government web resources and services.